This is the latest recevied weather packets stored in our database for station/object KD8OZS. If no packets are shown the sender has not sent any weather packets the latest 10 day(s).
| Time | Temp. | Humidity | Pressure | Rain* | Wind** | Luminosity | Snow |
|---|---|---|---|---|---|---|---|
| 1777655750 | 7.78° C | 93% | 1003.8 hPa | 0 mm | - | 83 W/m² | - |
| 1777655447 | 7.78° C | 93% | 1003.6 hPa | 1.78 mm | - | 154 W/m² | - |
| 1777655144 | 7.78° C | 93% | 1003.9 hPa | 1.78 mm | - | 143 W/m² | - |
| 1777654840 | 7.22° C | 93% | 1004 hPa | 0 mm | - | 98 W/m² | - |
| 1777654538 | 7.22° C | 93% | 1004 hPa | 1.27 mm | - | 89 W/m² | - |
| 1777654235 | 7.78° C | 94% | 1003.8 hPa | 1.27 mm | - | 120 W/m² | - |
| 1777653933 | 7.22° C | 94% | 1004 hPa | 0 mm | - | 118 W/m² | - |
| 1777653629 | 7.22° C | 94% | 1003.9 hPa | 0 mm | - | 154 W/m² | - |
| 1777653326 | 6.67° C | 94% | 1003.9 hPa | 0 mm | - | 129 W/m² | - |
| 1777653023 | 6.67° C | 94% | 1004.1 hPa | 1.78 mm | - | 62 W/m² | - |
| 1777652719 | 7.22° C | 94% | 1003.8 hPa | 1.78 mm | - | 67 W/m² | - |
| 1777652416 | 6.67° C | 94% | 1004 hPa | 0 mm | - | 58 W/m² | - |
| 1777652114 | 6.67° C | 94% | 1003.9 hPa | 0 mm | - | 57 W/m² | - |
| 1777651810 | 6.67° C | 94% | 1004 hPa | 0 mm | - | 45 W/m² | - |
| 1777651507 | 6.67° C | 94% | 1003.9 hPa | 0 mm | - | 50 W/m² | - |
| 1777651204 | 6.67° C | 95% | 1003.8 hPa | 0 mm | - | 52 W/m² | - |
| 1777650900 | 6.67° C | 95% | 1004 hPa | 0 mm | - | 53 W/m² | - |
| 1777650597 | 6.67° C | 95% | 1004 hPa | 0 mm | - | 53 W/m² | - |
| 1777650295 | 6.67° C | 95% | 1004.1 hPa | 0 mm | - | 45 W/m² | - |
| 1777649992 | 6.67° C | 95% | 1003.9 hPa | 0 mm | - | 52 W/m² | - |
| 1777649690 | 6.67° C | 95% | 1004.1 hPa | 1.27 mm | - | 45 W/m² | - |
| 1777649384 | 6.67° C | 95% | 1004.3 hPa | 3.05 mm | - | 48 W/m² | - |
| 1777649082 | 6.67° C | 95% | 1004.3 hPa | 3.56 mm | - | 65 W/m² | - |
| 1777648779 | 6.67° C | 95% | 1004.2 hPa | 3.05 mm | - | 55 W/m² | - |
| 1777648477 | 6.67° C | 94% | 1004.3 hPa | 1.27 mm | - | 65 W/m² | - |
* Rain latest hour (hover to see other rain measurements)
** Current wind speed in m/s (hover to see current wind gust speed)